No particular awareness of the weather is required.    There are no Weather-warnings


Meteo18 Weather Cam more information Meteo18 Weather Cam


Thunder radar more information blitzortung!


Rain radar more information rain snow radar


Visit our other weather sites:

Template documentation
and downloads

And another site



Weather Underground History page Text

Daily Summary for May 11, 2017 Units:  English    Metric   Both
« Previous Day
Next Day »
Daily Weekly Monthly Yearly Custom
  High: Low: Average:
Temperature: 58.6 °F 47.8 °F 54.5 °F
Dew Point: 56.3 °F 45.7 °F 51.4 °F
Humidity: 96 % 73 % 90 %
Wind Speed: 10 mph 0 mph 1.1 mph
Wind Gust: 14 mph - -
Wind:- - SSE
Pressure: 29.6 in 29.5 in -
Precipitation: 0.31 in    
Historical Graphs
 
 
Tabular Data for May 11, 2017
Time Temperature Dew Point Pressure Wind Wind Speed Wind Gust Humidity Rainfall Rate (Hourly)
00:02 56.5 °F 52.9 °F 29.6 in Calm     88 % 0 in
00:07 56.1 °F 52.7 °F 29.6 in Calm     88 % 0 in
00:12 55.9 °F 52.5 °F 29.6 in Calm     88 % 0 in
00:17 56.1 °F 52.7 °F 29.6 in Calm   1 mph 88 % 0 in
00:22 56.1 °F 52.9 °F 29.6 in Calm   1 mph 89 % 0 in
00:27 56.1 °F 52.7 °F 29.6 in Calm   1 mph 88 % 0 in
00:32 55.8 °F 52.3 °F 29.6 in Calm   1 mph 88 % 0 in
00:37 55.8 °F 52.5 °F 29.6 in Calm   1 mph 89 % 0 in
00:42 55.8 °F 52.5 °F 29.6 in Calm   1 mph 89 % 0 in
00:47 55.6 °F 52.3 °F 29.6 in Calm   1 mph 89 % 0 in
00:52 55.6 °F 52.3 °F 29.6 in Calm     89 % 0 in
00:57 55.6 °F 52.7 °F 29.6 in Calm   1 mph 90 % 0 in
01:02 55.6 °F 52.3 °F 29.6 in Calm   1 mph 89 % 0 in
01:12 55.2 °F 52 °F 29.6 in Calm     89 % 0 in
01:17 55.4 °F 52.5 °F 29.6 in Calm     90 % 0 in
01:22 55.6 °F 52.3 °F 29.6 in Calm     89 % 0 in
01:27 55.2 °F 52 °F 29.6 in Calm     89 % 0 in
01:32 55.2 °F 52.3 °F 29.6 in Calm     90 % 0 in
01:42 55 °F 51.8 °F 29.6 in Calm     89 % 0 in
01:47 54.9 °F 51.6 °F 29.6 in Calm     89 % 0 in
01:52 54.5 °F 51.3 °F 29.6 in Calm     89 % 0 in
01:57 54.3 °F 51.1 °F 29.6 in Calm     89 % 0 in
02:02 54.1 °F 51.3 °F 29.6 in Calm     90 % 0 in
02:12 54.3 °F 51.4 °F 29.6 in Calm     90 % 0 in
02:17 54.3 °F 51.1 °F 29.6 in Calm     89 % 0 in
02:22 54.1 °F 50.9 °F 29.6 in Calm     89 % 0 in
02:27 53.8 °F 50.5 °F 29.6 in Calm     89 % 0 in
02:32 53.4 °F 50.5 °F 29.6 in Calm     90 % 0 in
02:37 53.4 °F 50.9 °F 29.6 in Calm     91 % 0 in
02:42 53.4 °F 50.9 °F 29.6 in Calm     91 % 0 in
02:47 53.6 °F 50.7 °F 29.6 in Calm     90 % 0 in
02:52 53.4 °F 50.2 °F 29.6 in Calm     89 % 0 in
02:57 53.2 °F 50 °F 29.6 in Calm     89 % 0 in
03:02 52.9 °F 50 °F 29.6 in Calm     90 % 0 in
03:12 52.9 °F 50.4 °F 29.6 in Calm     91 % 0 in
03:17 52.9 °F 50 °F 29.6 in Calm     90 % 0 in
03:22 52.7 °F 49.5 °F 29.6 in Calm     89 % 0 in
03:27 52.3 °F 49.5 °F 29.6 in Calm     90 % 0 in
03:32 52.2 °F 49.3 °F 29.6 in Calm     90 % 0 in
03:37 52.2 °F 49.3 °F 29.6 in Calm     90 % 0 in
03:42 52.2 °F 49.3 °F 29.6 in Calm     90 % 0 in
03:47 51.8 °F 48.7 °F 29.6 in Calm     89 % 0 in
03:52 51.6 °F 48.7 °F 29.5 in Calm     90 % 0 in
03:57 51.6 °F 48.7 °F 29.5 in Calm     90 % 0 in
04:02 51.3 °F 48.2 °F 29.6 in Calm     89 % 0 in
04:12 50.7 °F 48.2 °F 29.5 in Calm     91 % 0 in
04:17 51.3 °F 48.7 °F 29.5 in Calm     91 % 0 in
04:22 51.3 °F 48.7 °F 29.5 in Calm     91 % 0 in
04:27 51.1 °F 48 °F 29.5 in Calm     89 % 0 in
04:32 50.5 °F 47.5 °F 29.5 in Calm     89 % 0 in
04:42 50.4 °F 48.2 °F 29.5 in NNE 2 mph 2 mph 92 % 0 in
04:47 50.9 °F 48.4 °F 29.5 in NE 2 mph 2 mph 91 % 0 in
04:52 51.1 °F 48.2 °F 29.5 in NNE 2 mph 2 mph 90 % 0 in
04:57 50.7 °F 47.7 °F 29.5 in Calm   3 mph 89 % 0 in
05:02 50.5 °F 47.5 °F 29.5 in Calm   3 mph 89 % 0 in
05:12 50.4 °F 47.5 °F 29.5 in Calm   2 mph 90 % 0 in
05:17 50 °F 47.1 °F 29.5 in Calm   1 mph 90 % 0 in
05:22 49.8 °F 46.9 °F 29.5 in Calm   1 mph 90 % 0 in
05:32 49.6 °F 47.1 °F 29.5 in Calm   1 mph 91 % 0 in
05:37 49.5 °F 46.6 °F 29.5 in Calm   1 mph 90 % 0 in
05:42 49.1 °F 46.2 °F 29.5 in Calm   1 mph 90 % 0 in
05:47 48.9 °F 46.4 °F 29.5 in Calm     91 % 0 in
05:52 48.7 °F 46.2 °F 29.5 in Calm     91 % 0 in
05:57 48.6 °F 46 °F 29.5 in Calm     91 % 0 in
06:02 48.4 °F 46.2 °F 29.5 in Calm     92 % 0 in
06:07 48.4 °F 46.2 °F 29.5 in Calm     92 % 0 in
06:12 48.4 °F 46.2 °F 29.5 in Calm     92 % 0 in
06:17 48.4 °F 46.2 °F 29.5 in Calm     92 % 0 in
06:22 48.2 °F 46 °F 29.5 in Calm     92 % 0 in
06:27 48 °F 45.9 °F 29.5 in Calm     92 % 0 in
06:32 47.8 °F 45.9 °F 29.5 in Calm     93 % 0 in
06:42 47.8 °F 45.7 °F 29.5 in North 1 mph   92 % 0 in
06:47 48 °F 45.9 °F 29.5 in North 1 mph 1 mph 92 % 0 in
06:52 48.6 °F 46.4 °F 29.5 in North 1 mph 1 mph 92 % 0 in
06:57 48.6 °F 46 °F 29.5 in Calm   2 mph 91 % 0 in
07:02 48.6 °F 46 °F 29.5 in North 1 mph 2 mph 91 % 0 in
07:12 49.1 °F 46.6 °F 29.5 in Calm   1 mph 91 % 0 in
07:17 49.3 °F 46.8 °F 29.5 in Calm   1 mph 91 % 0 in
07:22 49.5 °F 46.6 °F 29.5 in Calm   1 mph 90 % 0 in
07:27 50 °F 46.9 °F 29.5 in Calm   1 mph 89 % 0 in
07:32 50.4 °F 46.9 °F 29.5 in Calm   1 mph 88 % 0 in
07:42 51.4 °F 48 °F 29.5 in Calm   1 mph 88 % 0 in
07:52 52.2 °F 47.8 °F 29.5 in Calm     85 % 0 in
07:57 52.2 °F 47.8 °F 29.5 in SE 1 mph 1 mph 85 % 0 in
08:02 52.2 °F 47.5 °F 29.5 in Calm   1 mph 84 % 0 in
08:07 52 °F 46.9 °F 29.5 in East 1 mph 2 mph 83 % 0 in
08:12 52 °F 47.3 °F 29.5 in Calm   2 mph 84 % 0 in
08:17 52 °F 47.3 °F 29.5 in Calm   3 mph 84 % 0 in
08:22 52.2 °F 47.5 °F 29.5 in Calm   3 mph 84 % 0 in
08:27 52.3 °F 47.7 °F 29.5 in Calm   1 mph 84 % 0 in
08:32 52.3 °F 47.3 °F 29.5 in Calm   1 mph 83 % 0 in
08:37 52.5 °F 47.1 °F 29.5 in Calm   1 mph 82 % 0 in
08:42 53.1 °F 47.7 °F 29.5 in Calm   1 mph 82 % 0 in
08:47 53.2 °F 47.8 °F 29.5 in Calm   1 mph 82 % 0 in
08:52 53.4 °F 47.7 °F 29.5 in Calm   1 mph 81 % 0 in
08:57 53.8 °F 48 °F 29.5 in Calm     81 % 0 in
09:02 54 °F 48.6 °F 29.5 in Calm     82 % 0 in
09:12 54.1 °F 48.4 °F 29.5 in East 1 mph   81 % 0 in
09:17 54.5 °F 48.7 °F 29.5 in Calm   3 mph 81 % 0 in
09:22 54.9 °F 49.1 °F 29.5 in Calm   3 mph 81 % 0 in
09:27 55 °F 48.6 °F 29.5 in Calm   1 mph 79 % 0 in
09:32 55.4 °F 48.7 °F 29.5 in Calm   1 mph 78 % 0 in
09:37 55.6 °F 48.6 °F 29.5 in SSW 1 mph 2 mph 77 % 0 in
09:42 55.8 °F 48.4 °F 29.5 in Calm   2 mph 76 % 0 in
09:47 55.9 °F 48.2 °F 29.5 in SE 1 mph 4 mph 75 % 0 in
09:52 56.1 °F 48.7 °F 29.5 in South 2 mph 4 mph 76 % 0 in
09:57 56.1 °F 48.7 °F 29.5 in Calm   3 mph 76 % 0 in
10:02 56.5 °F 48.7 °F 29.5 in Calm   3 mph 75 % 0 in
10:12 56.7 °F 48.4 °F 29.5 in Calm   4 mph 74 % 0 in
10:17 56.7 °F 48 °F 29.5 in South 1 mph 4 mph 73 % 0 in
10:22 56.8 °F 48.6 °F 29.5 in Calm   4 mph 74 % 0 in
10:27 56.8 °F 48.2 °F 29.5 in South 1 mph 5 mph 73 % 0 in
10:32 57 °F 48.7 °F 29.5 in SE 1 mph 5 mph 74 % 0 in
10:42 57.4 °F 49.1 °F 29.5 in SSW 2 mph 6 mph 74 % 0 in
10:52 57.6 °F 48.9 °F 29.5 in SSW 4 mph 6 mph 73 % 0 in
10:57 57.6 °F 49.3 °F 29.5 in SSE 2 mph 9 mph 74 % 0 in
11:02 57.4 °F 48.7 °F 29.5 in SSE 8 mph 9 mph 73 % 0 in
11:07 57 °F 49.5 °F 29.5 in SW 6 mph 14 mph 76 % 0 in
11:12 55.9 °F 49.8 °F 29.5 in SSW 10 mph 14 mph 80 % 0 in
11:17 54.9 °F 50.4 °F 29.5 in SW 6 mph 13 mph 85 % 0.02 in
11:22 54.1 °F 50.4 °F 29.5 in SSW 6 mph 13 mph 87 % 0.02 in
11:27 53.6 °F 50.4 °F 29.5 in SSW 7 mph 13 mph 89 % 0.05 in
11:32 53.2 °F 50.4 °F 29.5 in SSW 7 mph 11 mph 90 % 0.06 in
11:42 53.2 °F 50.9 °F 29.5 in SSW 3 mph 11 mph 92 % 0.08 in
11:47 53.4 °F 51.4 °F 29.5 in South 1 mph 8 mph 93 % 0.09 in
11:52 53.6 °F 51.6 °F 29.5 in Calm   5 mph 93 % 0.1 in
11:57 53.4 °F 51.4 °F 29.5 in SW 1 mph 5 mph 93 % 0.11 in
12:02 53.6 °F 51.6 °F 29.5 in South 3 mph 5 mph 93 % 0.12 in
12:07 53.4 °F 51.4 °F 29.5 in Calm   5 mph 93 % 0.12 in
12:12 53.8 °F 51.8 °F 29.5 in South 1 mph 4 mph 93 % 0.12 in
12:17 53.8 °F 51.8 °F 29.5 in Calm   4 mph 93 % 0.11 in
12:22 53.8 °F 51.8 °F 29.5 in Calm   4 mph 93 % 0.11 in
12:27 54.1 °F 52.2 °F 29.5 in Calm   2 mph 93 % 0.09 in
12:32 54.3 °F 52.3 °F 29.5 in Calm   2 mph 93 % 0.09 in
12:37 54.7 °F 52.3 °F 29.5 in Calm   2 mph 92 % 0.09 in
12:42 54.7 °F 52.3 °F 29.5 in Calm   2 mph 92 % 0.08 in
12:47 55 °F 52.7 °F 29.5 in Calm   2 mph 92 % 0.06 in
12:52 55 °F 52.7 °F 29.5 in Calm   3 mph 92 % 0.06 in
12:57 55.2 °F 52.9 °F 29.5 in SSW 2 mph 3 mph 92 % 0.05 in
13:02 55.2 °F 52.9 °F 29.5 in SSW 1 mph 4 mph 92 % 0.04 in
13:12 55.8 °F 53.4 °F 29.5 in Calm   5 mph 92 % 0.04 in
13:17 55.9 °F 53.4 °F 29.5 in SW 1 mph 7 mph 91 % 0.03 in
13:22 56.1 °F 53.2 °F 29.5 in SSW 4 mph 7 mph 90 % 0.02 in
13:27 56.1 °F 53.2 °F 29.5 in SSW 3 mph 7 mph 90 % 0.02 in
13:32 56.1 °F 53.2 °F 29.5 in SSE 3 mph 6 mph 90 % 0.02 in
13:42 56.1 °F 53.2 °F 29.5 in SE 3 mph 6 mph 90 % 0.02 in
13:47 56.1 °F 53.2 °F 29.5 in SSW 2 mph 7 mph 90 % 0.02 in
13:52 56.1 °F 53.2 °F 29.5 in SE 2 mph 7 mph 90 % 0.02 in
13:57 55.9 °F 53.1 °F 29.5 in East 2 mph 7 mph 90 % 0.02 in
14:02 55.8 °F 52.9 °F 29.5 in SE 4 mph 10 mph 90 % 0.02 in
14:07 55.9 °F 53.4 °F 29.5 in East 1 mph 10 mph 91 % 0.02 in
14:12 55.9 °F 53.4 °F 29.5 in SSE 3 mph 10 mph 91 % 0.02 in
14:17 55.9 °F 53.4 °F 29.5 in ESE 1 mph 6 mph 91 % 0.02 in
14:22 56.1 °F 53.8 °F 29.5 in South 4 mph 6 mph 92 % 0.02 in
14:27 56.1 °F 53.6 °F 29.5 in ESE 2 mph 6 mph 91 % 0.02 in
14:32 56.3 °F 53.8 °F 29.5 in SSE 1 mph 6 mph 91 % 0.02 in
14:37 56.5 °F 54 °F 29.5 in SW 2 mph 6 mph 91 % 0.02 in
14:42 56.5 °F 54 °F 29.5 in SSW 3 mph 5 mph 91 % 0.02 in
14:52 56.3 °F 54 °F 29.5 in Calm   6 mph 92 % 0.02 in
14:57 56.5 °F 54.1 °F 29.5 in SSE 2 mph 6 mph 92 % 0.03 in
15:02 56.3 °F 54 °F 29.5 in SE 2 mph 6 mph 92 % 0.02 in
15:07 56.3 °F 54 °F 29.5 in South 2 mph 6 mph 92 % 0.02 in
15:12 56.1 °F 53.8 °F 29.5 in SE 3 mph 6 mph 92 % 0.02 in
15:17 56.3 °F 54 °F 29.5 in SE 6 mph 8 mph 92 % 0.02 in
15:22 56.5 °F 54.5 °F 29.5 in ESE 2 mph 8 mph 93 % 0.02 in
15:27 56.5 °F 54.5 °F 29.5 in SSE 2 mph 8 mph 93 % 0.02 in
15:32 56.5 °F 54.1 °F 29.5 in South 2 mph 8 mph 92 % 0.02 in
15:37 56.3 °F 54 °F 29.5 in SE 4 mph 7 mph 92 % 0.02 in
15:42 55.9 °F 53.6 °F 29.5 in ESE 1 mph 7 mph 92 % 0.03 in
15:47 56.1 °F 54.1 °F 29.5 in Calm   7 mph 93 % 0.02 in
15:52 56.1 °F 54.1 °F 29.5 in SE 4 mph 6 mph 93 % 0.02 in
15:57 56.1 °F 54.1 °F 29.5 in SE 3 mph 5 mph 93 % 0.03 in
16:02 56.1 °F 54.1 °F 29.5 in ESE 2 mph 5 mph 93 % 0.03 in
16:12 56.5 °F 54.9 °F 29.5 in South 4 mph 4 mph 94 % 0.04 in
16:17 56.5 °F 54.9 °F 29.5 in ESE 2 mph 4 mph 94 % 0.05 in
16:22 56.7 °F 55 °F 29.5 in SSW 1 mph 4 mph 94 % 0.05 in
16:27 56.7 °F 55 °F 29.5 in SW 2 mph 5 mph 94 % 0.05 in
16:32 56.8 °F 55.2 °F 29.5 in Calm   5 mph 94 % 0.05 in
16:42 57.2 °F 55.2 °F 29.5 in South 1 mph 5 mph 93 % 0.03 in
16:47 57 °F 55 °F 29.5 in SSE 1 mph 6 mph 93 % 0.03 in
16:52 57 °F 55 °F 29.5 in SSW 2 mph 6 mph 93 % 0.02 in
16:57 57.4 °F 55.4 °F 29.5 in SE 2 mph 9 mph 93 % 0.02 in
17:02 57.4 °F 55.4 °F 29.5 in ESE 1 mph 9 mph 93 % 0.01 in
17:07 57.4 °F 55.4 °F 29.5 in East 1 mph 6 mph 93 % 0.01 in
17:12 57.4 °F 55.4 °F 29.5 in SE 1 mph 6 mph 93 % 0.01 in
17:17 57.4 °F 55.4 °F 29.5 in ESE 1 mph 5 mph 93 % 0.01 in
17:22 57.4 °F 55.4 °F 29.5 in SSE 2 mph 6 mph 93 % 0.01 in
17:27 57 °F 55 °F 29.5 in South 1 mph 6 mph 93 % 0.02 in
17:32 57 °F 55 °F 29.5 in SSW 3 mph 8 mph 93 % 0.02 in
17:37 57 °F 55 °F 29.5 in SSE 1 mph 8 mph 93 % 0.02 in
17:42 56.8 °F 54.9 °F 29.5 in ESE 2 mph 8 mph 93 % 0.02 in
17:47 56.8 °F 54.9 °F 29.5 in SSE 2 mph 8 mph 93 % 0.02 in
17:52 56.8 °F 55.2 °F 29.5 in SSE 1 mph 8 mph 94 % 0.02 in
17:57 57.2 °F 55.4 °F 29.5 in SSE 1 mph 7 mph 94 % 0.02 in
18:02 57.4 °F 55.6 °F 29.5 in South 3 mph 5 mph 94 % 0.02 in
18:07 57.7 °F 55.9 °F 29.5 in SSW 4 mph 5 mph 94 % 0.01 in
18:12 57.9 °F 55.9 °F 29.5 in SSW 1 mph 5 mph 93 % 0.01 in
18:22 57.9 °F 55.9 °F 29.5 in South 3 mph 7 mph 93 % 0 in
18:32 58.3 °F 56.3 °F 29.5 in SW 3 mph 6 mph 93 % 0 in
18:42 58.6 °F 56.3 °F 29.5 in SSE 6 mph 8 mph 92 % 0 in
18:47 58.6 °F 56.3 °F 29.5 in WSW 2 mph 8 mph 92 % 0 in
18:52 58.6 °F 56.3 °F 29.5 in SSE 3 mph 7 mph 92 % 0 in
18:57 58.6 °F 56.3 °F 29.5 in SE 1 mph 7 mph 92 % 0 in
19:02 58.6 °F 56.3 °F 29.5 in Calm   7 mph 92 % 0 in
19:12 58.3 °F 55.9 °F 29.5 in Calm   7 mph 92 % 0 in
19:17 58.1 °F 55.8 °F 29.5 in Calm   7 mph 92 % 0 in
19:22 57.9 °F 55.6 °F 29.5 in SSE 2 mph 6 mph 92 % 0 in
19:27 57.7 °F 55.8 °F 29.5 in ESE 4 mph 7 mph 93 % 0 in
19:32 57.6 °F 55.6 °F 29.5 in East 3 mph 7 mph 93 % 0 in
19:42 57.4 °F 55.4 °F 29.5 in ENE 3 mph 7 mph 93 % 0 in
19:47 57 °F 55 °F 29.5 in South 1 mph 7 mph 93 % 0 in
19:52 56.8 °F 54.9 °F 29.5 in SSE 1 mph 7 mph 93 % 0 in
19:57 56.7 °F 54.7 °F 29.5 in SE 4 mph 7 mph 93 % 0 in
20:02 56.5 °F 54.5 °F 29.5 in SE 2 mph 7 mph 93 % 0 in
20:12 56.1 °F 54.1 °F 29.5 in ESE 1 mph 6 mph 93 % 0 in
20:17 56.1 °F 54.5 °F 29.5 in SE 2 mph 6 mph 94 % 0 in
20:27 55.9 °F 54.3 °F 29.5 in SSW 2 mph 6 mph 94 % 0 in
20:32 55.8 °F 54.1 °F 29.5 in SSE 3 mph 5 mph 94 % 0 in
20:37 55.8 °F 54.1 °F 29.5 in SSW 1 mph 5 mph 94 % 0 in
20:42 55.8 °F 54.1 °F 29.5 in Calm   5 mph 94 % 0 in
20:52 55.6 °F 54 °F 29.5 in South 3 mph 3 mph 94 % 0.01 in
20:57 55.6 °F 54 °F 29.5 in SSE 1 mph 4 mph 94 % 0.01 in
21:02 55.6 °F 54 °F 29.5 in Calm   4 mph 94 % 0.01 in
21:12 55.4 °F 54 °F 29.5 in SE 1 mph 3 mph 95 % 0.01 in
21:17 55.2 °F 53.8 °F 29.5 in SSE 1 mph 2 mph 95 % 0.01 in
21:22 55.2 °F 53.8 °F 29.5 in Calm   4 mph 95 % 0.01 in
21:32 55 °F 53.6 °F 29.5 in Calm   4 mph 95 % 0.01 in
21:42 55 °F 53.6 °F 29.5 in SSE 2 mph 2 mph 95 % 0.01 in
21:47 55 °F 53.6 °F 29.5 in Calm   2 mph 95 % 0 in
21:52 54.9 °F 53.4 °F 29.5 in Calm   2 mph 95 % 0 in
21:57 54.9 °F 53.4 °F 29.5 in Calm   3 mph 95 % 0 in
22:02 54.7 °F 53.2 °F 29.5 in SSE 2 mph 3 mph 95 % 0 in
22:07 54.7 °F 53.2 °F 29.5 in Calm   2 mph 95 % 0 in
22:12 54.7 °F 53.2 °F 29.5 in Calm   2 mph 95 % 0 in
22:17 54.7 °F 53.2 °F 29.5 in Calm   2 mph 95 % 0 in
22:22 54.7 °F 53.2 °F 29.5 in Calm   3 mph 95 % 0 in
22:32 54.5 °F 53.4 °F 29.5 in Calm   4 mph 96 % 0 in
22:42 54.3 °F 53.2 °F 29.5 in SSW 1 mph 3 mph 96 % 0 in
22:47 54.3 °F 53.2 °F 29.5 in SSW 1 mph 3 mph 96 % 0 in
22:52 54.3 °F 53.2 °F 29.5 in Calm   3 mph 96 % 0.01 in
22:57 54.3 °F 53.2 °F 29.5 in SW 2 mph 3 mph 96 % 0.01 in
23:02 54.3 °F 53.2 °F 29.5 in Calm   3 mph 96 % 0.01 in
23:07 54.3 °F 53.2 °F 29.5 in SSW 1 mph 2 mph 96 % 0.01 in
23:12 54.3 °F 53.2 °F 29.5 in Calm   3 mph 96 % 0.01 in
23:32 54.3 °F 53.2 °F 29.5 in SW 1 mph 2 mph 96 % 0.01 in
23:42 54.3 °F 53.2 °F 29.5 in Calm   4 mph 96 % 0.04 in
23:47 54.3 °F 53.2 °F 29.5 in SSE 1 mph 4 mph 96 % 0.03 in
23:57 54.3 °F 53.2 °F 29.5 in SSW 1 mph 3 mph 96 % 0.03 in
Meteo18
Compliments of Weather Underground - 4 mb

Script developed by  Jim McMurry - jmcmurry@mwt.net Adapted for the template by  Wim van der Kuil - Leuven-Template.eu

You find our weather info also at:

European Weather Network

Weather Underground

Equipment we use:

Weather-station
Davis Vue

Weather-program
Meteohub

Weather-server
Raspberry PI 2 B+

Provider
1 and 1

Davis Vue

Meteohub

Raspberry PI 2 B+

1 and 1